NCAR-RAP Real-Time Weather Data

Output produced by METARs form (12 May 2021  11:26 UTC)
found at http://weather.rap.ucar.edu/surface/
 
KPIR 121053Z AUTO 13005KT 10SM CLR 02/M03 A3029 RMK AO2 SLP261 T00221028
KPIR 120953Z AUTO 10005KT 10SM CLR 04/M03 A3029 RMK AO2 SLP262 T00391028
KPIR 120853Z AUTO 12006KT 10SM CLR 04/M02 A3029 RMK AO2 SLP263 T00441022 58003
KPIR 120753Z AUTO 00000KT 10SM CLR 04/M02 A3030 RMK AO2 SLP266 T00441022
KPIR 120653Z AUTO 00000KT 10SM CLR 05/M02 A3031 RMK AO2 SLP267 T00501017
KPIR 120553Z AUTO 12005KT 10SM CLR 06/M02 A3030 RMK AO2 SLP267 T00561017 10156 20050 401671028 51003
KPIR 120453Z AUTO 13007KT 10SM CLR 06/M01 A3030 RMK AO2 SLP266 T00611011
KPIR 120353Z AUTO 12007KT 10SM CLR 08/M02 A3031 RMK AO2 SLP266 T00831017
KPIR 120253Z AUTO 10005KT 10SM CLR 09/M02 A3030 RMK AO2 SLP264 T00941022 53008
KPIR 120153Z AUTO 09004KT 10SM CLR 11/M01 A3028 RMK AO2 SLP261 T01061006
KPIR 120053Z AUTO 11007KT 10SM CLR 14/M02 A3027 RMK AO2 SLP257 T01391017
KPIR 112353Z AUTO 11006KT 10SM CLR 16/M02 A3027 RMK AO2 SLP259 T01561022 10167 20139 56002
KPIR 112253Z AUTO 10007G16KT 10SM CLR 16/M02 A3027 RMK AO2 SLP258 T01611022
KPIR 112153Z AUTO 10007KT 10SM CLR 16/M03 A3027 RMK AO2 SLP256 T01611028
KPIR 112053Z AUTO 10SM CLR 15/M04 A3028 RMK AO2 SLP259 T01501039 56011
KPIR 111953Z AUTO 14009KT 110V170 10SM CLR 16/M02 A3028 RMK AO2 SLP262 T01561022